sensor_id;sensor_type;location;lat;lon;timestamp;pressure;altitude;pressure_sealevel;temperature;humidity
68226;BME280;55045;49.410;11.030;2024-02-04T00:00:59;98936.75;;;7.50;100.00
68226;BME280;55045;49.410;11.030;2024-02-04T00:04:04;98939.31;;;7.51;100.00
68226;BME280;55045;49.410;11.030;2024-02-04T00:07:09;98935.75;;;7.57;100.00
68226;BME280;55045;49.410;11.030;2024-02-04T00:10:12;98935.00;;;7.52;100.00
68226;BME280;55045;49.410;11.030;2024-02-04T00:13:19;98940.97;;;7.54;100.00
68226;BME280;55045;49.410;11.030;2024-02-04T00:16:23;98953.03;;;7.54;100.00
68226;BME280;55045;49.410;11.030;2024-02-04T00:19:27;98947.84;;;7.54;100.00
68226;BME280;55045;49.410;11.030;2024-02-04T00:22:32;98954.72;;;7.56;100.00
68226;BME280;55045;49.410;11.030;2024-02-04T00:25:36;98953.81;;;7.56;100.00
68226;BME280;55045;49.410;11.030;2024-02-04T00:28:40;98951.19;;;7.59;100.00
68226;BME280;55045;49.410;11.030;2024-02-04T00:31:45;98943.44;;;7.59;100.00
68226;BME280;55045;49.410;11.030;2024-02-04T00:34:49;98938.25;;;7.60;100.00
68226;BME280;55045;49.410;11.030;2024-02-04T00:37:54;98940.84;;;7.60;100.00
68226;BME280;55045;49.410;11.030;2024-02-04T00:40:58;98931.34;;;7.61;100.00
68226;BME280;55045;49.410;11.030;2024-02-04T00:44:01;98925.25;;;7.63;100.00
68226;BME280;55045;49.410;11.030;2024-02-04T00:47:05;98923.59;;;7.61;100.00
68226;BME280;55045;49.410;11.030;2024-02-04T00:50:09;98930.59;;;7.57;100.00
68226;BME280;55045;49.410;11.030;2024-02-04T00:53:15;98937.44;;;7.58;100.00
68226;BME280;55045;49.410;11.030;2024-02-04T00:56:19;98922.94;;;7.53;100.00
68226;BME280;55045;49.410;11.030;2024-02-04T00:59:22;98937.50;;;7.55;100.00
68226;BME280;55045;49.410;11.030;2024-02-04T01:02:26;98935.00;;;7.52;100.00
68226;BME280;55045;49.410;11.030;2024-02-04T01:05:30;98929.03;;;7.50;100.00
68226;BME280;55045;49.410;11.030;2024-02-04T01:08:36;98932.53;;;7.47;100.00
68226;BME280;55045;49.410;11.030;2024-02-04T01:11:40;98936.00;;;7.45;100.00
68226;BME280;55045;49.410;11.030;2024-02-04T01:14:44;98941.13;;;7.48;100.00
68226;BME280;55045;49.410;11.030;2024-02-04T01:17:47;98935.97;;;7.48;100.00
68226;BME280;55045;49.410;11.030;2024-02-04T01:20:51;98939.34;;;7.50;100.00
68226;BME280;55045;49.410;11.030;2024-02-04T01:23:56;98946.38;;;7.43;100.00
68226;BME280;55045;49.410;11.030;2024-02-04T01:27:00;98935.22;;;7.41;100.00
68226;BME280;55045;49.410;11.030;2024-02-04T01:30:05;98933.66;;;7.36;100.00
68226;BME280;55045;49.410;11.030;2024-02-04T01:33:10;98929.44;;;7.32;100.00
68226;BME280;55045;49.410;11.030;2024-02-04T01:36:14;98926.84;;;7.32;100.00
68226;BME280;55045;49.410;11.030;2024-02-04T01:39:19;98908.88;;;7.29;100.00
68226;BME280;55045;49.410;11.030;2024-02-04T01:42:23;98914.09;;;7.26;100.00
68226;BME280;55045;49.410;11.030;2024-02-04T01:45:27;98900.34;;;7.23;100.00
68226;BME280;55045;49.410;11.030;2024-02-04T01:48:31;98907.94;;;7.31;100.00
68226;BME280;55045;49.410;11.030;2024-02-04T01:51:36;98890.19;;;7.17;100.00
68226;BME280;55045;49.410;11.030;2024-02-04T01:54:41;98903.69;;;7.29;100.00
68226;BME280;55045;49.410;11.030;2024-02-04T01:57:47;98913.13;;;7.30;100.00
68226;BME280;55045;49.410;11.030;2024-02-04T02:00:51;98903.63;;;7.32;100.00
68226;BME280;55045;49.410;11.030;2024-02-04T02:03:56;98901.84;;;7.34;100.00
68226;BME280;55045;49.410;11.030;2024-02-04T02:07:01;98900.22;;;7.30;100.00
68226;BME280;55045;49.410;11.030;2024-02-04T02:10:07;98901.13;;;7.29;100.00
68226;BME280;55045;49.410;11.030;2024-02-04T02:13:16;98906.13;;;7.36;100.00
68226;BME280;55045;49.410;11.030;2024-02-04T02:16:24;98897.53;;;7.34;100.00
68226;BME280;55045;49.410;11.030;2024-02-04T02:19:35;98913.03;;;7.34;100.00
68226;BME280;55045;49.410;11.030;2024-02-04T02:22:49;98918.16;;;7.36;100.00
68226;BME280;55045;49.410;11.030;2024-02-04T02:25:55;98904.38;;;7.35;100.00
68226;BME280;55045;49.410;11.030;2024-02-04T02:28:59;98918.94;;;7.39;100.00
68226;BME280;55045;49.410;11.030;2024-02-04T02:32:04;98913.81;;;7.38;100.00
68226;BME280;55045;49.410;11.030;2024-02-04T02:35:09;98908.56;;;7.41;100.00
68226;BME280;55045;49.410;11.030;2024-02-04T02:38:20;98909.47;;;7.40;100.00
68226;BME280;55045;49.410;11.030;2024-02-04T02:41:29;98918.91;;;7.41;100.00
68226;BME280;55045;49.410;11.030;2024-02-04T02:44:34;98922.38;;;7.40;100.00
68226;BME280;55045;49.410;11.030;2024-02-04T02:47:40;98927.56;;;7.38;100.00
68226;BME280;55045;49.410;11.030;2024-02-04T02:50:47;98925.69;;;7.45;100.00
68226;BME280;55045;49.410;11.030;2024-02-04T02:53:51;98933.53;;;7.40;100.00
68226;BME280;55045;49.410;11.030;2024-02-04T02:56:56;98930.84;;;7.45;100.00
68226;BME280;55045;49.410;11.030;2024-02-04T03:00:00;98930.03;;;7.43;100.00
68226;BME280;55045;49.410;11.030;2024-02-04T03:03:04;98939.47;;;7.44;100.00
68226;BME280;55045;49.410;11.030;2024-02-04T03:06:08;98937.84;;;7.40;100.00
68226;BME280;55045;49.410;11.030;2024-02-04T03:09:12;98925.84;;;7.39;100.00
68226;BME280;55045;49.410;11.030;2024-02-04T03:12:17;98920.69;;;7.39;100.00
68226;BME280;55045;49.410;11.030;2024-02-04T03:15:20;98911.25;;;7.38;100.00
68226;BME280;55045;49.410;11.030;2024-02-04T03:18:25;98900.97;;;7.36;100.00
68226;BME280;55045;49.410;11.030;2024-02-04T03:21:29;98899.06;;;7.43;100.00
68226;BME280;55045;49.410;11.030;2024-02-04T03:24:33;98914.63;;;7.40;100.00
68226;BME280;55045;49.410;11.030;2024-02-04T03:27:39;98926.53;;;7.45;100.00
68226;BME280;55045;49.410;11.030;2024-02-04T03:30:43;98914.59;;;7.41;100.00
68226;BME280;55045;49.410;11.030;2024-02-04T03:33:47;98912.91;;;7.40;100.00
68226;BME280;55045;49.410;11.030;2024-02-04T03:36:51;98913.75;;;7.41;100.00
68226;BME280;55045;49.410;11.030;2024-02-04T03:39:55;98918.09;;;7.39;100.00
68226;BME280;55045;49.410;11.030;2024-02-04T03:43:01;98916.31;;;7.41;100.00
68226;BME280;55045;49.410;11.030;2024-02-04T03:46:05;98917.22;;;7.40;100.00
68226;BME280;55045;49.410;11.030;2024-02-04T03:49:09;98912.03;;;7.40;100.00
68226;BME280;55045;49.410;11.030;2024-02-04T03:52:13;98915.56;;;7.37;100.00
68226;BME280;55045;49.410;11.030;2024-02-04T03:55:17;98907.00;;;7.34;100.00
68226;BME280;55045;49.410;11.030;2024-02-04T03:58:22;98913.94;;;7.32;100.00
68226;BME280;55045;49.410;11.030;2024-02-04T04:01:31;98919.88;;;7.37;100.00
68226;BME280;55045;49.410;11.030;2024-02-04T04:04:35;98915.59;;;7.34;100.00
68226;BME280;55045;49.410;11.030;2024-02-04T04:07:39;98905.31;;;7.33;100.00
68226;BME280;55045;49.410;11.030;2024-02-04T04:10:43;98911.28;;;7.35;100.00
68226;BME280;55045;49.410;11.030;2024-02-04T04:13:48;98909.59;;;7.34;100.00
68226;BME280;55045;49.410;11.030;2024-02-04T04:16:52;98908.97;;;7.22;100.00
68226;BME280;55045;49.410;11.030;2024-02-04T04:19:56;98912.56;;;7.17;100.00
68226;BME280;55045;49.410;11.030;2024-02-04T04:22:59;98906.63;;;7.12;100.00
68226;BME280;55045;49.410;11.030;2024-02-04T04:26:03;98916.19;;;7.08;100.00
68226;BME280;55045;49.410;11.030;2024-02-04T04:29:09;98920.50;;;7.08;100.00
68226;BME280;55045;49.410;11.030;2024-02-04T04:34:47;98907.88;;;6.96;100.00
68226;BME280;55045;49.410;11.030;2024-02-04T04:37:50;98917.22;;;7.00;100.00
68226;BME280;55045;49.410;11.030;2024-02-04T04:40:55;98906.00;;;7.02;100.00
68226;BME280;55045;49.410;11.030;2024-02-04T04:43:58;98921.44;;;7.04;100.00
68226;BME280;55045;49.410;11.030;2024-02-04T04:47:02;98906.78;;;7.06;100.00
68226;BME280;55045;49.410;11.030;2024-02-04T04:50:08;98911.03;;;7.08;100.00
68226;BME280;55045;49.410;11.030;2024-02-04T04:53:11;98902.53;;;7.03;100.00
68226;BME280;55045;49.410;11.030;2024-02-04T04:56:15;98877.78;;;6.96;100.00
68226;BME280;55045;49.410;11.030;2024-02-04T04:59:19;98893.91;;;7.06;100.00
68226;BME280;55045;49.410;11.030;2024-02-04T05:02:23;98899.91;;;7.06;100.00
68226;BME280;55045;49.410;11.030;2024-02-04T05:05:28;98899.09;;;7.03;100.00
68226;BME280;55045;49.410;11.030;2024-02-04T05:08:32;98897.31;;;7.05;100.00
68226;BME280;55045;49.410;11.030;2024-02-04T05:11:36;98890.47;;;7.05;100.00
68226;BME280;55045;49.410;11.030;2024-02-04T05:14:39;98900.06;;;6.99;100.00
68226;BME280;55045;49.410;11.030;2024-02-04T05:17:43;98891.50;;;6.97;100.00
68226;BME280;55045;49.410;11.030;2024-02-04T05:20:48;98894.13;;;6.95;100.00
68226;BME280;55045;49.410;11.030;2024-02-04T05:23:52;98872.84;;;6.85;100.00
68226;BME280;55045;49.410;11.030;2024-02-04T05:26:55;98890.72;;;6.93;100.00
68226;BME280;55045;49.410;11.030;2024-02-04T05:29:59;98889.09;;;6.89;100.00
68226;BME280;55045;49.410;11.030;2024-02-04T05:33:04;98883.84;;;6.92;100.00
68226;BME280;55045;49.410;11.030;2024-02-04T05:36:10;98896.78;;;6.90;100.00
68226;BME280;55045;49.410;11.030;2024-02-04T05:39:14;98885.63;;;6.90;100.00
68226;BME280;55045;49.410;11.030;2024-02-04T05:42:19;98882.94;;;6.94;100.00
68226;BME280;55045;49.410;11.030;2024-02-04T05:45:23;98890.72;;;6.93;100.00
68226;BME280;55045;49.410;11.030;2024-02-04T05:48:27;98886.44;;;6.92;100.00
68226;BME280;55045;49.410;11.030;2024-02-04T05:51:37;98891.56;;;6.93;100.00
68226;BME280;55045;49.410;11.030;2024-02-04T05:54:42;98889.81;;;6.94;100.00
68226;BME280;55045;49.410;11.030;2024-02-04T05:57:47;98892.34;;;6.97;100.00
68226;BME280;55045;49.410;11.030;2024-02-04T06:00:51;98894.09;;;6.97;100.00
68226;BME280;55045;49.410;11.030;2024-02-04T06:03:54;98889.78;;;6.97;100.00
68226;BME280;55045;49.410;11.030;2024-02-04T06:06:59;98863.41;;;6.83;100.00
68226;BME280;55045;49.410;11.030;2024-02-04T06:10:04;98882.16;;;6.91;100.00
68226;BME280;55045;49.410;11.030;2024-02-04T06:13:08;98876.19;;;6.89;100.00
68226;BME280;55045;49.410;11.030;2024-02-04T06:16:11;98870.22;;;6.87;100.00
68226;BME280;55045;49.410;11.030;2024-02-04T06:19:15;98872.00;;;6.85;100.00
68226;BME280;55045;49.410;11.030;2024-02-04T06:22:21;98862.56;;;6.82;100.00
68226;BME280;55045;49.410;11.030;2024-02-04T06:25:24;98862.53;;;6.84;100.00
68226;BME280;55045;49.410;11.030;2024-02-04T06:28:28;98866.69;;;6.91;100.00
68226;BME280;55045;49.410;11.030;2024-02-04T06:31:32;98868.31;;;6.97;100.00
68226;BME280;55045;49.410;11.030;2024-02-04T06:34:36;98876.03;;;6.97;100.00
68226;BME280;55045;49.410;11.030;2024-02-04T06:37:42;98864.78;;;6.99;100.00
68226;BME280;55045;49.410;11.030;2024-02-04T06:40:46;98875.88;;;7.03;100.00
68226;BME280;55045;49.410;11.030;2024-02-04T06:44:01;98872.41;;;7.05;100.00
68226;BME280;55045;49.410;11.030;2024-02-04T06:47:22;98897.38;;;7.03;100.00
68226;BME280;55045;49.410;11.030;2024-02-04T06:50:31;98875.94;;;7.01;100.00
68226;BME280;55045;49.410;11.030;2024-02-04T06:53:57;98895.66;;;7.02;100.00
68226;BME280;55045;49.410;11.030;2024-02-04T06:57:31;98885.31;;;7.05;100.00
68226;BME280;55045;49.410;11.030;2024-02-04T07:00:46;98889.59;;;7.06;100.00
68226;BME280;55045;49.410;11.030;2024-02-04T07:04:35;98872.31;;;7.10;100.00
68226;BME280;55045;49.410;11.030;2024-02-04T07:07:54;98879.91;;;7.14;100.00
68226;BME280;55045;49.410;11.030;2024-02-04T07:14:43;98891.28;;;7.07;100.00
68226;BME280;55045;49.410;11.030;2024-02-04T07:18:25;98878.34;;;7.09;100.00
68226;BME280;55045;49.410;11.030;2024-02-04T07:22:13;98887.75;;;7.11;100.00
68226;BME280;55045;49.410;11.030;2024-02-04T07:25:47;98865.31;;;7.13;100.00
68226;BME280;55045;49.410;11.030;2024-02-04T07:29:24;98863.63;;;7.12;100.00
68226;BME280;55045;49.410;11.030;2024-02-04T07:32:43;98866.81;;;7.23;100.00
68226;BME280;55045;49.410;11.030;2024-02-04T07:35:47;98863.38;;;7.23;100.00
68226;BME280;55045;49.410;11.030;2024-02-04T07:38:52;98851.53;;;7.14;100.00
68226;BME280;55045;49.410;11.030;2024-02-04T07:42:41;98865.06;;;7.26;100.00
68226;BME280;55045;49.410;11.030;2024-02-04T07:46:07;98876.09;;;7.32;100.00
68226;BME280;55045;49.410;11.030;2024-02-04T07:50:39;98863.06;;;7.38;100.00
68226;BME280;55045;49.410;11.030;2024-02-04T07:54:08;98865.50;;;7.43;100.00
68226;BME280;55045;49.410;11.030;2024-02-04T07:58:08;98862.16;;;7.39;100.00
68226;BME280;55045;49.410;11.030;2024-02-04T08:01:35;98861.25;;;7.42;100.00
68226;BME280;55045;49.410;11.030;2024-02-04T08:05:07;98867.06;;;7.50;100.00
68226;BME280;55045;49.410;11.030;2024-02-04T08:08:22;98868.81;;;7.49;100.00
68226;BME280;55045;49.410;11.030;2024-02-04T08:11:47;98857.47;;;7.55;100.00
68226;BME280;55045;49.410;11.030;2024-02-04T08:15:17;98868.63;;;7.57;100.00
68226;BME280;55045;49.410;11.030;2024-02-04T08:20:02;98661.69;;;6.38;100.00
68226;BME280;55045;49.410;11.030;2024-02-04T08:23:44;98869.25;;;7.67;100.00
68226;BME280;55045;49.410;11.030;2024-02-04T08:27:29;98873.56;;;7.66;100.00
68226;BME280;55045;49.410;11.030;2024-02-04T08:31:12;98881.09;;;7.74;100.00
68226;BME280;55045;49.410;11.030;2024-02-04T08:34:39;98881.28;;;7.68;100.00
68226;BME280;55045;49.410;11.030;2024-02-04T08:42:35;98866.69;;;7.65;100.00
68226;BME280;55045;49.410;11.030;2024-02-04T08:45:59;98887.34;;;7.65;100.00
68226;BME280;55045;49.410;11.030;2024-02-04T08:49:44;98865.16;;;7.58;100.00
68226;BME280;55045;49.410;11.030;2024-02-04T08:53:19;98871.00;;;7.65;100.00
68226;BME280;55045;49.410;11.030;2024-02-04T08:57:57;98819.34;;;7.31;100.00
68226;BME280;55045;49.410;11.030;2024-02-04T09:03:00;98881.22;;;7.69;100.00
68226;BME280;55045;49.410;11.030;2024-02-04T09:06:39;98864.31;;;7.58;100.00
68226;BME280;55045;49.410;11.030;2024-02-04T09:09:42;98879.47;;;7.71;100.00
68226;BME280;55045;49.410;11.030;2024-02-04T09:12:47;98881.91;;;7.77;100.00
68226;BME280;55045;49.410;11.030;2024-02-04T09:15:51;98886.09;;;7.82;100.00
68226;BME280;55045;49.410;11.030;2024-02-04T09:18:56;98833.44;;;7.53;100.00
68226;BME280;55045;49.410;11.030;2024-02-04T09:22:00;98880.00;;;7.84;100.00
68226;BME280;55045;49.410;11.030;2024-02-04T09:25:06;98876.44;;;7.90;100.00
68226;BME280;55045;49.410;11.030;2024-02-04T09:28:10;98875.22;;;8.03;100.00
68226;BME280;55045;49.410;11.030;2024-02-04T09:31:14;98872.63;;;8.03;100.00
68226;BME280;55045;49.410;11.030;2024-02-04T09:34:19;98867.66;;;7.95;100.00
68226;BME280;55045;49.410;11.030;2024-02-04T09:37:25;98855.75;;;7.90;100.00
68226;BME280;55045;49.410;11.030;2024-02-04T09:40:29;98850.38;;;7.99;100.00
68226;BME280;55045;49.410;11.030;2024-02-04T09:43:35;98849.22;;;8.09;100.00
68226;BME280;55045;49.410;11.030;2024-02-04T09:46:40;98835.41;;;8.10;100.00
68226;BME280;55045;49.410;11.030;2024-02-04T09:49:44;98831.84;;;8.14;100.00
68226;BME280;55045;49.410;11.030;2024-02-04T09:52:50;98849.59;;;8.26;100.00
68226;BME280;55045;49.410;11.030;2024-02-04T09:55:54;98853.88;;;8.27;100.00
68226;BME280;55045;49.410;11.030;2024-02-04T09:59:01;98859.88;;;8.29;100.00
68226;BME280;55045;49.410;11.030;2024-02-04T10:02:06;98841.16;;;8.21;100.00
68226;BME280;55045;49.410;11.030;2024-02-04T10:05:10;98840.75;;;8.36;100.00
68226;BME280;55045;49.410;11.030;2024-02-04T10:08:14;98863.91;;;8.41;100.00
68226;BME280;55045;49.410;11.030;2024-02-04T10:11:22;98851.72;;;8.45;100.00
68226;BME280;55045;49.410;11.030;2024-02-04T10:14:28;98843.97;;;8.45;100.00
68226;BME280;55045;49.410;11.030;2024-02-04T10:17:31;98838.69;;;8.48;100.00
68226;BME280;55045;49.410;11.030;2024-02-04T10:20:35;98830.72;;;8.55;100.00
68226;BME280;55045;49.410;11.030;2024-02-04T10:23:39;98826.16;;;8.65;100.00
68226;BME280;55045;49.410;11.030;2024-02-04T10:26:42;98841.75;;;8.62;100.00
68226;BME280;55045;49.410;11.030;2024-02-04T10:29:50;98834.97;;;8.58;100.00
68226;BME280;55045;49.410;11.030;2024-02-04T10:34:46;98829.34;;;8.44;100.00
68226;BME280;55045;49.410;11.030;2024-02-04T10:37:50;98818.03;;;8.48;100.00
68226;BME280;55045;49.410;11.030;2024-02-04T10:40:54;98812.84;;;8.49;100.00
68226;BME280;55045;49.410;11.030;2024-02-04T10:43:58;98811.78;;;8.55;100.00
68226;BME280;55045;49.410;11.030;2024-02-04T10:47:05;98801.50;;;8.53;100.00
68226;BME280;55045;49.410;11.030;2024-02-04T10:50:12;98799.94;;;8.48;100.00
68226;BME280;55045;49.410;11.030;2024-02-04T10:53:19;98810.84;;;8.57;100.00
68226;BME280;55045;49.410;11.030;2024-02-04T10:56:25;98798.69;;;8.61;100.00
68226;BME280;55045;49.410;11.030;2024-02-04T10:59:32;98797.59;;;8.68;100.00
68226;BME280;55045;49.410;11.030;2024-02-04T11:02:38;98798.31;;;8.73;100.00
68226;BME280;55045;49.410;11.030;2024-02-04T11:05:44;98793.22;;;8.72;100.00
68226;BME280;55045;49.410;11.030;2024-02-04T11:08:50;98796.53;;;8.75;100.00
68226;BME280;55045;49.410;11.030;2024-02-04T11:11:59;98791.56;;;8.69;100.00
68226;BME280;55045;49.410;11.030;2024-02-04T11:15:05;98796.81;;;8.66;100.00
68226;BME280;55045;49.410;11.030;2024-02-04T11:18:24;98789.00;;;8.68;100.00
68226;BME280;55045;49.410;11.030;2024-02-04T11:21:53;98779.69;;;8.62;100.00
68226;BME280;55045;49.410;11.030;2024-02-04T11:25:17;98757.19;;;8.65;100.00
68226;BME280;55045;49.410;11.030;2024-02-04T11:28:23;98770.06;;;8.67;100.00
68226;BME280;55045;49.410;11.030;2024-02-04T11:31:28;98772.63;;;8.69;100.00
68226;BME280;55045;49.410;11.030;2024-02-04T11:34:33;98764.81;;;8.70;100.00
68226;BME280;55045;49.410;11.030;2024-02-04T11:37:39;98756.16;;;8.71;100.00
68226;BME280;55045;49.410;11.030;2024-02-04T11:40:45;98754.97;;;8.81;100.00
68226;BME280;55045;49.410;11.030;2024-02-04T11:43:52;98741.94;;;8.84;100.00
68226;BME280;55045;49.410;11.030;2024-02-04T11:47:03;98734.19;;;8.84;100.00
68226;BME280;55045;49.410;11.030;2024-02-04T11:50:09;98733.19;;;8.88;100.00
68226;BME280;55045;49.410;11.030;2024-02-04T11:53:15;98733.91;;;8.93;100.00
68226;BME280;55045;49.410;11.030;2024-02-04T11:56:19;98729.22;;;9.05;100.00
68226;BME280;55045;49.410;11.030;2024-02-04T11:59:24;98718.75;;;9.08;100.00
68226;BME280;55045;49.410;11.030;2024-02-04T12:02:28;98715.88;;;9.17;100.00
68226;BME280;55045;49.410;11.030;2024-02-04T12:05:32;98735.59;;;9.21;100.00
68226;BME280;55045;49.410;11.030;2024-02-04T12:08:38;98722.56;;;9.24;100.00
68226;BME280;55045;49.410;11.030;2024-02-04T12:11:42;98715.63;;;9.24;100.00
68226;BME280;55045;49.410;11.030;2024-02-04T12:14:48;98725.34;;;9.18;100.00
68226;BME280;55045;49.410;11.030;2024-02-04T12:17:52;98722.16;;;9.10;100.00
68226;BME280;55045;49.410;11.030;2024-02-04T12:20:56;98725.38;;;9.16;100.00
68226;BME280;55045;49.410;11.030;2024-02-04T12:24:02;98726.44;;;9.11;100.00
68226;BME280;55045;49.410;11.030;2024-02-04T12:27:06;98710.22;;;9.06;100.00
68226;BME280;55045;49.410;11.030;2024-02-04T12:30:10;98703.47;;;9.02;100.00
68226;BME280;55045;49.410;11.030;2024-02-04T12:33:17;98671.22;;;8.85;100.00
68226;BME280;55045;49.410;11.030;2024-02-04T12:36:21;98709.31;;;9.07;100.00
68226;BME280;55045;49.410;11.030;2024-02-04T12:39:26;98715.38;;;9.06;100.00
68226;BME280;55045;49.410;11.030;2024-02-04T12:42:30;98704.13;;;9.07;100.00
68226;BME280;55045;49.410;11.030;2024-02-04T12:45:34;98717.72;;;9.13;100.00
68226;BME280;55045;49.410;11.030;2024-02-04T12:48:38;98728.69;;;9.21;100.00
68226;BME280;55045;49.410;11.030;2024-02-04T12:51:42;98698.81;;;9.11;100.00
68226;BME280;55045;49.410;11.030;2024-02-04T12:54:47;98715.69;;;9.23;100.00
68226;BME280;55045;49.410;11.030;2024-02-04T12:58:01;98712.09;;;9.27;100.00
68226;BME280;55045;49.410;11.030;2024-02-04T13:01:06;98698.16;;;9.31;100.00
68226;BME280;55045;49.410;11.030;2024-02-04T13:04:10;98713.69;;;9.31;100.00
68226;BME280;55045;49.410;11.030;2024-02-04T13:07:14;98718.06;;;9.29;100.00
68226;BME280;55045;49.410;11.030;2024-02-04T13:10:22;98701.53;;;9.33;100.00
68226;BME280;55045;49.410;11.030;2024-02-04T13:13:25;98690.28;;;9.34;100.00
68226;BME280;55045;49.410;11.030;2024-02-04T13:16:31;98681.38;;;9.43;100.00
68226;BME280;55045;49.410;11.030;2024-02-04T13:19:36;98661.16;;;9.28;100.00
68226;BME280;55045;49.410;11.030;2024-02-04T13:22:41;98667.50;;;9.44;100.00
68226;BME280;55045;49.410;11.030;2024-02-04T13:25:46;98675.22;;;9.45;100.00
68226;BME280;55045;49.410;11.030;2024-02-04T13:28:50;98669.16;;;9.46;100.00
68226;BME280;55045;49.410;11.030;2024-02-04T13:31:54;98675.75;;;9.55;100.00
68226;BME280;55045;49.410;11.030;2024-02-04T13:34:58;98668.88;;;9.54;100.00
68226;BME280;55045;49.410;11.030;2024-02-04T13:38:14;98666.19;;;9.57;100.00
68226;BME280;55045;49.410;11.030;2024-02-04T13:41:20;98658.66;;;9.51;100.00
68226;BME280;55045;49.410;11.030;2024-02-04T13:44:24;98664.38;;;9.59;100.00
68226;BME280;55045;49.410;11.030;2024-02-04T13:47:28;98675.09;;;9.48;100.00
68226;BME280;55045;49.410;11.030;2024-02-04T13:50:32;98673.38;;;9.49;100.00
68226;BME280;55045;49.410;11.030;2024-02-04T13:53:35;98678.59;;;9.47;100.00
68226;BME280;55045;49.410;11.030;2024-02-04T13:56:40;98668.47;;;9.41;100.00
68226;BME280;55045;49.410;11.030;2024-02-04T13:59:44;98676.19;;;9.43;100.00
68226;BME280;55045;49.410;11.030;2024-02-04T14:02:48;98684.91;;;9.40;100.00
68226;BME280;55045;49.410;11.030;2024-02-04T14:05:52;98675.41;;;9.41;100.00
68226;BME280;55045;49.410;11.030;2024-02-04T14:08:57;98694.50;;;9.37;100.00
68226;BME280;55045;49.410;11.030;2024-02-04T14:12:03;98696.25;;;9.36;100.00
68226;BME280;55045;49.410;11.030;2024-02-04T14:15:08;98680.06;;;9.30;100.00
68226;BME280;55045;49.410;11.030;2024-02-04T14:18:12;98697.31;;;9.31;100.00
68226;BME280;55045;49.410;11.030;2024-02-04T14:21:16;98700.16;;;9.23;100.00
68226;BME280;55045;49.410;11.030;2024-02-04T14:24:19;98704.53;;;9.21;100.00
68226;BME280;55045;49.410;11.030;2024-02-04T14:27:24;98711.47;;;9.20;100.00
68226;BME280;55045;49.410;11.030;2024-02-04T14:30:28;98715.94;;;9.15;100.00
68226;BME280;55045;49.410;11.030;2024-02-04T14:33:32;98703.66;;;8.95;100.00
68226;BME280;55045;49.410;11.030;2024-02-04T14:36:42;98716.19;;;9.08;100.00
68226;BME280;55045;49.410;11.030;2024-02-04T14:39:46;98730.81;;;9.09;100.00
68226;BME280;55045;49.410;11.030;2024-02-04T14:42:53;98731.69;;;9.08;100.00
68226;BME280;55045;49.410;11.030;2024-02-04T14:45:56;98732.81;;;9.01;100.00
68226;BME280;55045;49.410;11.030;2024-02-04T14:49:02;98732.00;;;8.99;100.00
68226;BME280;55045;49.410;11.030;2024-02-04T14:52:06;98712.19;;;8.98;100.00
68226;BME280;55045;49.410;11.030;2024-02-04T14:55:10;98700.09;;;9.00;100.00
68226;BME280;55045;49.410;11.030;2024-02-04T14:58:16;98710.44;;;8.98;100.00
68226;BME280;55045;49.410;11.030;2024-02-04T15:01:19;98685.34;;;9.02;100.00
68226;BME280;55045;49.410;11.030;2024-02-04T15:04:24;98687.16;;;9.00;100.00
68226;BME280;55045;49.410;11.030;2024-02-04T15:07:28;98705.25;;;9.00;100.00
68226;BME280;55045;49.410;11.030;2024-02-04T15:10:32;98698.38;;;8.99;100.00
68226;BME280;55045;49.410;11.030;2024-02-04T15:13:38;98704.53;;;8.94;100.00
68226;BME280;55045;49.410;11.030;2024-02-04T15:16:42;98709.81;;;8.91;100.00
68226;BME280;55045;49.410;11.030;2024-02-04T15:19:47;98703.03;;;8.89;100.00
68226;BME280;55045;49.410;11.030;2024-02-04T15:22:53;98696.28;;;8.83;100.00
68226;BME280;55045;49.410;11.030;2024-02-04T15:25:59;98691.22;;;8.80;100.00
68226;BME280;55045;49.410;11.030;2024-02-04T15:29:04;98691.41;;;8.74;100.00
68226;BME280;55045;49.410;11.030;2024-02-04T15:32:10;98694.09;;;8.71;100.00
68226;BME280;55045;49.410;11.030;2024-02-04T15:35:16;98695.00;;;8.70;100.00
68226;BME280;55045;49.410;11.030;2024-02-04T15:38:21;98687.31;;;8.67;100.00
68226;BME280;55045;49.410;11.030;2024-02-04T15:41:25;98675.28;;;8.66;100.00
68226;BME280;55045;49.410;11.030;2024-02-04T15:44:32;98679.66;;;8.64;100.00
68226;BME280;55045;49.410;11.030;2024-02-04T15:47:40;98687.50;;;8.61;100.00
68226;BME280;55045;49.410;11.030;2024-02-04T15:50:48;98681.50;;;8.60;100.00
68226;BME280;55045;49.410;11.030;2024-02-04T15:53:52;98684.13;;;8.59;100.00
68226;BME280;55045;49.410;11.030;2024-02-04T15:56:58;98676.38;;;8.59;100.00
68226;BME280;55045;49.410;11.030;2024-02-04T16:00:10;98687.56;;;8.59;100.00
68226;BME280;55045;49.410;11.030;2024-02-04T16:03:21;98680.72;;;8.57;100.00
68226;BME280;55045;49.410;11.030;2024-02-04T16:06:26;98683.31;;;8.57;100.00
68226;BME280;55045;49.410;11.030;2024-02-04T16:09:30;98694.59;;;8.54;100.00
68226;BME280;55045;49.410;11.030;2024-02-04T16:12:34;98686.00;;;8.54;100.00
68226;BME280;55045;49.410;11.030;2024-02-04T16:15:42;98692.13;;;8.51;100.00
68226;BME280;55045;49.410;11.030;2024-02-04T16:18:49;98683.53;;;8.51;100.00
68226;BME280;55045;49.410;11.030;2024-02-04T16:21:52;98683.59;;;8.48;100.00
68226;BME280;55045;49.410;11.030;2024-02-04T16:24:58;98678.44;;;8.48;100.00
68226;BME280;55045;49.410;11.030;2024-02-04T16:28:02;98681.00;;;8.49;100.00
68226;BME280;55045;49.410;11.030;2024-02-04T16:34:46;98698.59;;;8.36;100.00
68226;BME280;55045;49.410;11.030;2024-02-04T16:37:51;98698.56;;;8.38;100.00
68226;BME280;55045;49.410;11.030;2024-02-04T16:40:54;98692.44;;;8.41;100.00
68226;BME280;55045;49.410;11.030;2024-02-04T16:43:58;98690.72;;;8.41;100.00